Time;durP1;ratioP1;P1;durP2;ratioP2;P2;SDS_P1;SDS_P2;PMS_P1;PMS_P2;Temp;Humidity;BMP_temperature;BMP_pressure;BME280_temperature;BME280_humidity;BME280_pressure;Samples;Min_cycle;Max_cycle;Signal;HPM_P1;HPM_P2
2023/12/18 00:01:49;;;;;;;10.32;4.72;;;;;;;;;;5002309;28;20034;-83
2023/12/18 00:04:15;;;;;;;11.88;5.10;;;;;;;;;;5002711;28;20023;-86
2023/12/18 00:06:40;;;;;;;8.32;5.00;;;;;;;;;;5002726;28;20035;-83
2023/12/18 00:09:05;;;;;;;9.95;5.72;;;;;;;;;;4984537;28;20035;-84
2023/12/18 00:11:30;;;;;;;8.70;5.03;;;;;;;;;;5001802;28;20065;-84
2023/12/18 00:13:55;;;;;;;14.45;5.40;;;;;;;;;;5001356;28;20053;-84
2023/12/18 00:16:21;;;;;;;10.45;4.70;;;;;;;;;;5001668;28;20030;-82
2023/12/18 00:18:46;;;;;;;15.80;5.83;;;;;;;;;;4983449;28;20486;-84
2023/12/18 00:21:13;;;;;;;10.93;5.22;;;;;;;;;;5000971;28;20759;-83
2023/12/18 00:23:38;;;;;;;10.35;5.65;;;;;;;;;;5001724;28;20057;-82
2023/12/18 00:26:04;;;;;;;11.57;6.07;;;;;;;;;;5000976;28;20029;-85
2023/12/18 00:28:29;;;;;;;10.43;5.45;;;;;;;;;;5000963;28;20030;-85
2023/12/18 00:30:54;;;;;;;11.13;5.43;;;;;;;;;;4983552;28;20034;-81
2023/12/18 00:33:19;;;;;;;10.43;5.25;;;;;;;;;;5000833;28;20064;-81
2023/12/18 00:35:45;;;;;;;11.20;5.17;;;;;;;;;;5000533;28;20031;-84
2023/12/18 00:38:10;;;;;;;12.27;5.03;;;;;;;;;;4982615;28;20271;-82
2023/12/18 00:40:35;;;;;;;12.27;5.43;;;;;;;;;;4998526;28;20272;-84
2023/12/18 00:43:00;;;;;;;10.40;5.13;;;;;;;;;;4999799;28;20045;-84
2023/12/18 00:45:25;;;;;;;10.68;5.20;;;;;;;;;;4982925;28;20517;-85
2023/12/18 00:47:52;;;;;;;12.35;5.50;;;;;;;;;;4983381;28;20046;-85
2023/12/18 00:50:17;;;;;;;8.82;5.03;;;;;;;;;;5000511;28;20026;-85
2023/12/18 00:52:43;;;;;;;9.68;4.75;;;;;;;;;;4983352;28;20034;-84
2023/12/18 00:55:08;;;;;;;11.23;5.05;;;;;;;;;;4982285;28;20027;-86
2023/12/18 00:57:34;;;;;;;13.05;5.05;;;;;;;;;;5000777;28;20030;-85
2023/12/18 00:59:59;;;;;;;10.93;5.53;;;;;;;;;;5000292;28;20073;-84
2023/12/18 01:02:24;;;;;;;13.07;5.20;;;;;;;;;;5000384;28;20077;-84
2023/12/18 01:04:50;;;;;;;12.60;5.03;;;;;;;;;;4982252;28;20034;-84
2023/12/18 01:07:15;;;;;;;9.30;4.70;;;;;;;;;;4981810;28;20105;-85
2023/12/18 01:09:40;;;;;;;10.10;4.70;;;;;;;;;;4981597;28;20280;-85
2023/12/18 01:12:06;;;;;;;11.15;5.43;;;;;;;;;;4982279;28;20057;-85
2023/12/18 01:14:31;;;;;;;10.52;5.13;;;;;;;;;;4982456;28;20049;-83
2023/12/18 01:16:57;;;;;;;10.45;5.30;;;;;;;;;;4982723;28;20022;-86
2023/12/18 01:19:22;;;;;;;8.95;4.85;;;;;;;;;;5000614;28;20033;-82
2023/12/18 01:21:47;;;;;;;12.18;5.18;;;;;;;;;;4983582;28;20122;-85
2023/12/18 01:24:12;;;;;;;11.25;5.20;;;;;;;;;;4984746;28;20065;-85
2023/12/18 01:26:38;;;;;;;8.60;4.93;;;;;;;;;;4985131;28;20362;-85
2023/12/18 01:29:04;;;;;;;9.85;5.05;;;;;;;;;;5003076;28;20044;-85
2023/12/18 01:31:29;;;;;;;10.45;5.05;;;;;;;;;;4983566;28;20053;-83
2023/12/18 01:33:54;;;;;;;11.00;4.55;;;;;;;;;;5001596;28;20507;-85
2023/12/18 01:36:20;;;;;;;9.70;4.78;;;;;;;;;;4985082;28;20397;-84
2023/12/18 01:38:46;;;;;;;10.43;5.10;;;;;;;;;;5002133;28;20425;-84
2023/12/18 01:41:11;;;;;;;9.35;5.03;;;;;;;;;;4981442;28;20026;-85
2023/12/18 01:43:37;;;;;;;10.02;5.07;;;;;;;;;;4982338;28;20030;-86
2023/12/18 01:46:03;;;;;;;10.55;5.32;;;;;;;;;;4983246;28;20019;-87
2023/12/18 01:49:51;;;;;;;13.65;5.15;;;;;;;;;;4982873;28;20037;-86
2023/12/18 01:52:15;;;;;;;9.98;4.88;;;;;;;;;;5000039;28;20030;-86
2023/12/18 01:55:51;;;;;;;9.65;4.78;;;;;;;;;;4954701;28;20034;-86
2023/12/18 01:59:09;;;;;;;;;;;;;;;;;;;;;
2023/12/18 02:01:38;;;;;;;10.13;4.97;;;;;;;;;;4980180;28;20105;-86
2023/12/18 02:07:07;;;;;;;12.40;5.05;;;;;;;;;;4990574;28;20448;-86
2023/12/18 02:10:00;;;;;;;9.52;4.93;;;;;;;;;;4982971;28;20038;-86
2023/12/18 02:12:41;;;;;;;10.00;5.13;;;;;;;;;;4982476;28;20084;-86
2023/12/18 02:15:09;;;;;;;9.35;4.82;;;;;;;;;;4999319;28;20114;-86
2023/12/18 02:17:35;;;;;;;11.82;5.32;;;;;;;;;;4982074;28;20027;-87
2023/12/18 02:20:25;;;;;;;9.48;5.35;;;;;;;;;;4999678;28;20118;-86
2023/12/18 02:22:56;;;;;;;8.88;4.90;;;;;;;;;;4982453;28;20038;-86
2023/12/18 02:25:33;;;;;;;14.38;5.00;;;;;;;;;;4981582;28;20406;-86
2023/12/18 02:28:24;;;;;;;10.68;4.82;;;;;;;;;;4984348;28;20434;-85
2023/12/18 02:30:58;;;;;;;12.75;5.30;;;;;;;;;;4981920;28;20037;-87
2023/12/18 02:33:37;;;;;;;11.45;4.88;;;;;;;;;;4986679;28;20058;-85
2023/12/18 02:36:35;;;;;;;11.73;5.30;;;;;;;;;;4989199;28;20031;-85
2023/12/18 02:39:24;;;;;;;9.73;4.63;;;;;;;;;;4997499;28;20094;-83
2023/12/18 02:42:01;;;;;;;7.80;4.40;;;;;;;;;;5016268;28;20026;-82
2023/12/18 02:44:35;;;;;;;9.35;5.13;;;;;;;;;;4999075;28;20057;-81
2023/12/18 02:47:01;;;;;;;;;;;;;;;;;;4988507;28;20038;-84
2023/12/18 02:49:26;;;;;;;11.35;4.40;;;;;;;;;;4983974;28;19909;-83
2023/12/18 02:51:51;;;;;;;10.50;4.78;;;;;;;;;;5004101;28;20026;-83
2023/12/18 02:54:17;;;;;;;8.43;4.47;;;;;;;;;;5008601;28;20054;-84
2023/12/18 02:56:42;;;;;;;9.60;5.00;;;;;;;;;;5017156;28;20018;-83
2023/12/18 02:59:07;;;;;;;11.47;5.33;;;;;;;;;;5002919;28;20030;-82
2023/12/18 03:01:32;;;;;;;12.73;5.18;;;;;;;;;;5001107;28;20260;-86
2023/12/18 03:03:58;;;;;;;8.77;4.85;;;;;;;;;;5007254;28;20022;-86
2023/12/18 03:06:23;;;;;;;9.25;4.70;;;;;;;;;;5006718;28;20026;-85
2023/12/18 03:08:48;;;;;;;10.90;5.68;;;;;;;;;;5007549;28;20030;-85
2023/12/18 03:11:14;;;;;;;11.60;4.90;;;;;;;;;;5007743;28;20069;-85
2023/12/18 03:13:39;;;;;;;10.00;5.22;;;;;;;;;;5005550;28;20126;-85
2023/12/18 03:16:04;;;;;;;10.90;4.72;;;;;;;;;;5005195;28;20034;-86
2023/12/18 03:18:30;;;;;;;11.55;4.85;;;;;;;;;;4987604;28;20032;-86
2023/12/18 03:20:55;;;;;;;11.98;5.05;;;;;;;;;;5004849;28;20018;-86
2023/12/18 03:23:21;;;;;;;9.27;5.25;;;;;;;;;;4987989;28;20489;-86
2023/12/18 03:25:46;;;;;;;8.30;5.03;;;;;;;;;;4987841;28;20018;-82
2023/12/18 03:28:13;;;;;;;11.85;4.85;;;;;;;;;;5006127;28;20026;-86
2023/12/18 03:30:38;;;;;;;10.60;5.03;;;;;;;;;;5005938;28;20113;-85
2023/12/18 03:33:04;;;;;;;8.82;4.45;;;;;;;;;;5006329;28;20041;-83
2023/12/18 03:35:29;;;;;;;9.10;4.68;;;;;;;;;;4989765;28;20026;-83
2023/12/18 03:37:54;;;;;;;10.85;5.07;;;;;;;;;;5007596;28;20073;-84
2023/12/18 03:40:19;;;;;;;10.48;5.40;;;;;;;;;;5007526;28;20033;-83
2023/12/18 03:42:44;;;;;;;10.63;4.88;;;;;;;;;;4990292;28;20023;-85
2023/12/18 03:45:10;;;;;;;9.27;4.68;;;;;;;;;;4990934;28;20025;-85
2023/12/18 03:47:35;;;;;;;11.90;5.05;;;;;;;;;;5007340;28;20086;-85
2023/12/18 03:50:00;;;;;;;10.63;5.13;;;;;;;;;;4988080;28;20029;-85
2023/12/18 03:52:25;;;;;;;10.50;5.13;;;;;;;;;;5004110;28;20026;-85
2023/12/18 03:54:51;;;;;;;11.13;5.30;;;;;;;;;;4986620;28;20037;-84
2023/12/18 03:57:16;;;;;;;9.38;5.03;;;;;;;;;;5005205;28;20018;-84
2023/12/18 03:59:41;;;;;;;12.25;5.45;;;;;;;;;;5004546;28;20027;-85
2023/12/18 04:02:06;;;;;;;9.05;4.85;;;;;;;;;;5005816;28;20031;-84
2023/12/18 04:04:32;;;;;;;8.95;4.88;;;;;;;;;;4988142;28;20019;-85
2023/12/18 04:06:57;;;;;;;10.07;5.10;;;;;;;;;;5005816;28;20517;-83
2023/12/18 04:09:22;;;;;;;9.25;4.93;;;;;;;;;;5006023;28;20466;-85
2023/12/18 04:11:50;;;;;;;9.57;5.10;;;;;;;;;;5006626;28;20037;-84
2023/12/18 04:14:16;;;;;;;12.38;5.75;;;;;;;;;;4986540;28;20026;-84
2023/12/18 04:16:41;;;;;;;8.77;5.03;;;;;;;;;;5004734;28;20026;-84
2023/12/18 04:19:06;;;;;;;9.25;5.10;;;;;;;;;;5004675;28;20026;-82
2023/12/18 04:21:32;;;;;;;11.07;5.13;;;;;;;;;;4985722;28;20037;-82
2023/12/18 04:23:57;;;;;;;9.52;4.97;;;;;;;;;;5002273;28;20046;-83
2023/12/18 04:26:22;;;;;;;8.87;4.97;;;;;;;;;;5004528;28;20058;-83
2023/12/18 04:28:47;;;;;;;8.98;5.05;;;;;;;;;;5006373;28;20315;-85
2023/12/18 04:31:17;;;;;;;11.52;5.10;;;;;;;;;;4989577;28;20031;-84
2023/12/18 04:33:42;;;;;;;11.52;5.60;;;;;;;;;;4987474;28;20026;-84
2023/12/18 04:36:08;;;;;;;9.10;5.25;;;;;;;;;;5002854;28;20023;-86
2023/12/18 04:38:34;;;;;;;10.32;5.65;;;;;;;;;;4983810;28;20109;-86
2023/12/18 04:40:59;;;;;;;9.90;5.75;;;;;;;;;;4985461;28;20022;-86
2023/12/18 04:43:24;;;;;;;11.10;5.50;;;;;;;;;;4985436;28;20026;-86
2023/12/18 04:45:49;;;;;;;11.55;6.05;;;;;;;;;;4988583;28;20536;-84
2023/12/18 04:48:15;;;;;;;10.68;6.07;;;;;;;;;;4986529;28;20547;-84
2023/12/18 04:50:40;;;;;;;10.80;5.75;;;;;;;;;;5003673;28;20485;-83
2023/12/18 04:53:05;;;;;;;11.70;5.72;;;;;;;;;;4986190;28;20065;-84
2023/12/18 04:55:32;;;;;;;12.73;6.32;;;;;;;;;;5003614;28;20018;-84
2023/12/18 04:57:58;;;;;;;11.25;5.68;;;;;;;;;;5005442;28;20058;-85
2023/12/18 05:00:23;;;;;;;11.68;5.85;;;;;;;;;;5005625;28;20034;-85
2023/12/18 05:02:48;;;;;;;11.88;6.07;;;;;;;;;;5003190;28;20488;-84
2023/12/18 05:05:16;;;;;;;11.07;6.03;;;;;;;;;;4985207;28;20037;-85
2023/12/18 05:07:41;;;;;;;12.50;6.53;;;;;;;;;;5003851;28;20057;-84
2023/12/18 05:10:07;;;;;;;11.88;6.00;;;;;;;;;;4986181;28;20019;-83
2023/12/18 05:12:32;;;;;;;12.73;6.03;;;;;;;;;;5003733;28;20486;-85
2023/12/18 05:14:57;;;;;;;11.35;5.85;;;;;;;;;;5003290;28;20022;-83
2023/12/18 05:17:22;;;;;;;13.13;6.22;;;;;;;;;;5003340;28;20034;-85
2023/12/18 05:19:48;;;;;;;11.75;6.03;;;;;;;;;;4985382;28;20022;-84
2023/12/18 05:22:13;;;;;;;12.60;6.40;;;;;;;;;;4984101;28;20026;-85
2023/12/18 05:24:38;;;;;;;10.68;6.15;;;;;;;;;;4985108;28;20097;-84
2023/12/18 05:27:03;;;;;;;12.65;5.97;;;;;;;;;;5003418;28;20037;-85
2023/12/18 05:29:29;;;;;;;11.88;5.30;;;;;;;;;;5006401;28;20086;-85
2023/12/18 05:31:54;;;;;;;13.07;6.40;;;;;;;;;;5007098;28;20022;-85
2023/12/18 05:34:19;;;;;;;11.15;5.80;;;;;;;;;;4987725;28;20036;-84
2023/12/18 05:36:44;;;;;;;10.73;5.80;;;;;;;;;;5003185;28;20552;-84
2023/12/18 05:39:10;;;;;;;12.82;6.40;;;;;;;;;;5004760;28;20034;-85
2023/12/18 05:41:36;;;;;;;10.23;5.30;;;;;;;;;;5004894;28;20023;-84
2023/12/18 05:44:01;;;;;;;13.88;5.85;;;;;;;;;;4985934;28;20113;-84
2023/12/18 05:46:26;;;;;;;10.93;5.70;;;;;;;;;;4982701;28;20025;-84
2023/12/18 05:48:52;;;;;;;10.20;5.50;;;;;;;;;;5000058;28;20047;-84
2023/12/18 05:51:21;;;;;;;10.43;5.75;;;;;;;;;;5000392;28;20029;-84
2023/12/18 05:53:46;;;;;;;11.85;6.45;;;;;;;;;;5000645;28;20129;-84
2023/12/18 05:56:11;;;;;;;13.25;6.47;;;;;;;;;;4999299;28;20030;-83
2023/12/18 05:58:37;;;;;;;13.65;6.50;;;;;;;;;;4999488;28;20034;-83
2023/12/18 06:01:02;;;;;;;13.55;7.05;;;;;;;;;;4999684;28;20037;-84
2023/12/18 06:03:27;;;;;;;13.00;6.63;;;;;;;;;;4999749;28;20023;-85
2023/12/18 06:05:52;;;;;;;11.93;6.32;;;;;;;;;;4982873;28;20022;-85
2023/12/18 06:08:17;;;;;;;13.35;6.53;;;;;;;;;;4981879;28;20023;-85
2023/12/18 06:10:43;;;;;;;14.27;7.03;;;;;;;;;;4981819;28;20036;-86
2023/12/18 06:13:08;;;;;;;11.90;6.57;;;;;;;;;;5000334;28;20101;-84
2023/12/18 06:15:33;;;;;;;21.50;6.78;;;;;;;;;;4982539;28;20315;-85
2023/12/18 06:17:58;;;;;;;17.77;7.13;;;;;;;;;;4981160;28;20461;-85
2023/12/18 06:20:23;;;;;;;14.13;6.30;;;;;;;;;;4997826;28;20397;-86
2023/12/18 06:22:49;;;;;;;16.33;6.68;;;;;;;;;;4979257;28;20509;-83
2023/12/18 06:25:14;;;;;;;12.05;6.97;;;;;;;;;;4995292;28;20544;-83
2023/12/18 06:27:39;;;;;;;14.40;6.32;;;;;;;;;;4980286;28;20481;-83
2023/12/18 06:30:05;;;;;;;13.40;6.68;;;;;;;;;;4994624;28;20042;-82
2023/12/18 06:32:30;;;;;;;15.55;6.72;;;;;;;;;;5022130;28;20041;-82
2023/12/18 06:34:56;;;;;;;12.93;6.57;;;;;;;;;;5004782;28;20022;-80
2023/12/18 06:37:21;;;;;;;13.85;6.75;;;;;;;;;;5001492;28;20037;-85
2023/12/18 06:39:46;;;;;;;264.50;20.48;;;;;;;;;;5000804;28;20026;-83
2023/12/18 06:42:11;;;;;;;19.98;8.10;;;;;;;;;;5000146;28;20033;-83
2023/12/18 06:44:37;;;;;;;15.50;6.78;;;;;;;;;;5000296;28;20516;-85
2023/12/18 06:47:02;;;;;;;17.70;6.18;;;;;;;;;;4982857;28;20489;-84
2023/12/18 06:49:27;;;;;;;15.88;7.28;;;;;;;;;;4983149;28;20022;-85
2023/12/18 06:51:55;;;;;;;16.70;6.30;;;;;;;;;;4999851;28;20034;-84
2023/12/18 06:54:20;;;;;;;13.75;6.45;;;;;;;;;;4982569;28;20363;-84
2023/12/18 06:56:45;;;;;;;21.02;6.55;;;;;;;;;;4999419;28;20062;-81
2023/12/18 06:59:11;;;;;;;11.50;6.28;;;;;;;;;;4984464;28;20031;-83
2023/12/18 07:01:36;;;;;;;12.95;6.25;;;;;;;;;;4998667;28;20029;-84
2023/12/18 07:04:02;;;;;;;15.68;6.72;;;;;;;;;;4983705;28;20504;-85
2023/12/18 07:06:28;;;;;;;10.15;6.25;;;;;;;;;;4980859;28;20026;-86
2023/12/18 07:08:53;;;;;;;14.30;6.40;;;;;;;;;;4981255;28;20022;-85
2023/12/18 07:11:18;;;;;;;12.82;6.78;;;;;;;;;;5000056;28;20039;-85
2023/12/18 07:13:44;;;;;;;12.23;6.00;;;;;;;;;;4982026;28;20112;-85
2023/12/18 07:16:17;;;;;;;11.63;6.30;;;;;;;;;;4999284;28;20058;-86
2023/12/18 07:18:42;;;;;;;12.32;6.05;;;;;;;;;;5000272;28;20034;-86
2023/12/18 07:21:08;;;;;;;12.57;5.90;;;;;;;;;;4983775;28;20026;-87
2023/12/18 07:23:33;;;;;;;14.57;7.00;;;;;;;;;;5005483;28;20030;-87
2023/12/18 07:25:58;;;;;;;11.95;6.18;;;;;;;;;;5005896;28;20022;-85
2023/12/18 07:28:23;;;;;;;17.33;6.50;;;;;;;;;;4988506;28;20076;-85
2023/12/18 07:30:48;;;;;;;15.35;6.55;;;;;;;;;;5007112;28;20026;-85
2023/12/18 07:33:14;;;;;;;15.73;6.78;;;;;;;;;;5005740;28;20064;-85
2023/12/18 07:35:39;;;;;;;13.77;7.10;;;;;;;;;;5006586;28;20030;-86
2023/12/18 07:38:04;;;;;;;14.38;6.50;;;;;;;;;;4988456;28;20029;-85
2023/12/18 07:40:30;;;;;;;12.73;6.70;;;;;;;;;;4987206;28;20085;-86
2023/12/18 07:42:55;;;;;;;13.50;6.22;;;;;;;;;;4986315;28;20026;-84
2023/12/18 07:45:20;;;;;;;12.02;6.45;;;;;;;;;;5006690;28;20018;-85
2023/12/18 07:47:46;;;;;;;10.70;5.68;;;;;;;;;;5008315;28;20022;-85
2023/12/18 07:50:11;;;;;;;15.63;6.50;;;;;;;;;;5010025;28;20194;-85
2023/12/18 07:52:36;;;;;;;11.63;6.38;;;;;;;;;;5003545;28;20076;-85
2023/12/18 07:55:02;;;;;;;13.15;6.28;;;;;;;;;;5002919;28;20052;-85
2023/12/18 07:57:27;;;;;;;12.70;6.47;;;;;;;;;;4986152;28;20034;-85
2023/12/18 07:59:54;;;;;;;14.77;6.93;;;;;;;;;;5005283;28;20113;-85
2023/12/18 08:02:20;;;;;;;20.13;7.75;;;;;;;;;;5007470;28;20026;-85
2023/12/18 08:04:45;;;;;;;15.18;6.35;;;;;;;;;;5005201;28;20029;-84
2023/12/18 08:07:10;;;;;;;20.58;6.50;;;;;;;;;;5005399;28;20040;-85
2023/12/18 08:09:35;;;;;;;11.10;6.15;;;;;;;;;;4986907;28;20038;-85
2023/12/18 08:12:00;;;;;;;22.13;7.43;;;;;;;;;;4993573;28;20049;-80
2023/12/18 08:14:26;;;;;;;15.35;7.10;;;;;;;;;;4995573;28;20026;-81
2023/12/18 08:16:51;;;;;;;15.82;6.97;;;;;;;;;;5012482;28;20092;-83
2023/12/18 08:19:17;;;;;;;15.27;7.03;;;;;;;;;;5002771;28;20027;-81
2023/12/18 08:21:43;;;;;;;17.25;7.80;;;;;;;;;;5000885;28;20038;-83
2023/12/18 08:24:08;;;;;;;11.57;6.70;;;;;;;;;;4981122;28;20033;-83
2023/12/18 08:26:34;;;;;;;14.38;7.85;;;;;;;;;;4999591;28;20019;-84
2023/12/18 08:28:59;;;;;;;13.57;8.07;;;;;;;;;;5000256;28;20068;-82
2023/12/18 08:31:24;;;;;;;16.20;6.75;;;;;;;;;;5000721;28;20032;-86
2023/12/18 08:33:50;;;;;;;13.45;7.00;;;;;;;;;;4983693;28;20121;-84
2023/12/18 08:36:15;;;;;;;12.70;6.95;;;;;;;;;;4982336;28;20049;-84
2023/12/18 08:38:40;;;;;;;14.93;6.85;;;;;;;;;;4983513;28;20030;-85
2023/12/18 08:41:06;;;;;;;11.82;6.70;;;;;;;;;;4988076;28;20029;-85
2023/12/18 08:43:31;;;;;;;14.55;7.03;;;;;;;;;;5002137;28;20389;-86
2023/12/18 08:45:56;;;;;;;17.42;6.82;;;;;;;;;;5002194;28;20030;-86
2023/12/18 08:48:22;;;;;;;12.57;6.40;;;;;;;;;;5001919;28;20026;-86
2023/12/18 08:50:47;;;;;;;17.10;7.00;;;;;;;;;;4983784;28;20028;-86
2023/12/18 08:53:12;;;;;;;13.07;6.43;;;;;;;;;;5001036;28;20034;-87
2023/12/18 08:55:39;;;;;;;10.38;5.72;;;;;;;;;;4983148;28;20294;-87
2023/12/18 08:58:10;;;;;;;10.13;6.05;;;;;;;;;;4983548;28;20030;-85
2023/12/18 09:00:36;;;;;;;10.40;5.78;;;;;;;;;;5001615;28;20032;-85
2023/12/18 09:03:02;;;;;;;13.63;6.15;;;;;;;;;;5000211;28;20022;-86
2023/12/18 09:05:30;;;;;;;11.45;6.05;;;;;;;;;;4982827;28;20026;-86
2023/12/18 09:07:56;;;;;;;10.27;5.55;;;;;;;;;;4999529;28;20062;-87
2023/12/18 09:10:24;;;;;;;11.20;6.20;;;;;;;;;;4982876;28;20022;-85
2023/12/18 09:12:51;;;;;;;14.65;6.03;;;;;;;;;;4999455;28;20034;-86
2023/12/18 09:15:17;;;;;;;12.80;5.72;;;;;;;;;;4998803;28;20030;-86
2023/12/18 09:17:42;;;;;;;11.00;6.05;;;;;;;;;;4981027;28;20401;-86
2023/12/18 09:20:08;;;;;;;10.40;5.72;;;;;;;;;;5000281;28;20037;-86
2023/12/18 09:22:33;;;;;;;16.38;6.10;;;;;;;;;;4983544;28;20081;-86
2023/12/18 09:24:58;;;;;;;15.00;6.50;;;;;;;;;;4999518;28;20022;-86
2023/12/18 09:27:23;;;;;;;11.77;6.10;;;;;;;;;;4982117;28;20053;-86
2023/12/18 09:29:49;;;;;;;12.15;6.28;;;;;;;;;;4999317;28;20397;-86
2023/12/18 09:32:14;;;;;;;12.63;6.32;;;;;;;;;;4999304;28;20026;-86
2023/12/18 09:34:39;;;;;;;13.63;6.68;;;;;;;;;;4999063;28;20160;-79
2023/12/18 09:37:04;;;;;;;12.57;6.28;;;;;;;;;;4999904;28;20094;-80
2023/12/18 09:39:44;;;;;;;10.70;5.95;;;;;;;;;;4999340;28;20609;-77
2023/12/18 09:42:10;;;;;;;10.30;6.25;;;;;;;;;;4998329;28;20072;-80
2023/12/18 09:44:36;;;;;;;13.05;5.80;;;;;;;;;;4998306;28;20101;-80
2023/12/18 09:47:02;;;;;;;9.55;5.28;;;;;;;;;;4980383;28;20029;-80
2023/12/18 09:49:27;;;;;;;10.75;5.68;;;;;;;;;;4998510;28;20086;-84
2023/12/18 09:51:56;;;;;;;11.43;5.85;;;;;;;;;;4980805;28;20033;-81
2023/12/18 09:54:22;;;;;;;13.73;5.63;;;;;;;;;;4981268;28;20057;-80
2023/12/18 09:56:49;;;;;;;9.45;5.78;;;;;;;;;;4998593;28;20038;-80
2023/12/18 09:59:17;;;;;;;10.45;5.47;;;;;;;;;;4998878;28;20097;-80
2023/12/18 10:01:46;;;;;;;11.63;5.72;;;;;;;;;;4998294;28;20034;-80
2023/12/18 10:04:12;;;;;;;7.70;4.90;;;;;;;;;;4997472;28;20026;-80
2023/12/18 10:06:37;;;;;;;8.88;5.30;;;;;;;;;;4997693;28;20117;-80
2023/12/18 10:09:06;;;;;;;10.75;5.60;;;;;;;;;;5004789;28;20133;-78
2023/12/18 10:11:31;;;;;;;10.63;5.13;;;;;;;;;;4991546;28;20034;-77
2023/12/18 10:13:56;;;;;;;13.93;5.47;;;;;;;;;;5007974;28;20076;-79
2023/12/18 10:16:22;;;;;;;9.70;5.50;;;;;;;;;;4997559;28;20384;-79
2023/12/18 10:18:47;;;;;;;10.60;5.10;;;;;;;;;;4996617;28;20156;-78
2023/12/18 10:21:12;;;;;;;9.40;5.38;;;;;;;;;;4997740;28;20138;-81
2023/12/18 10:23:38;;;;;;;13.10;5.35;;;;;;;;;;4997269;28;20054;-79
2023/12/18 10:26:04;;;;;;;9.85;5.18;;;;;;;;;;4997437;28;20034;-80
2023/12/18 10:28:29;;;;;;;9.90;5.60;;;;;;;;;;4997321;28;20035;-79
2023/12/18 10:30:56;;;;;;;9.13;5.47;;;;;;;;;;4994328;28;20034;-78
2023/12/18 10:33:21;;;;;;;11.48;5.78;;;;;;;;;;4992789;28;20030;-83
2023/12/18 10:35:48;;;;;;;9.30;5.15;;;;;;;;;;4992856;28;20696;-78
2023/12/18 10:38:19;;;;;;;9.30;5.75;;;;;;;;;;4994691;28;20022;-80
2023/12/18 10:40:45;;;;;;;9.32;5.88;;;;;;;;;;4993541;28;20109;-78
2023/12/18 10:43:22;;;;;;;12.82;6.03;;;;;;;;;;4991607;28;20026;-78
2023/12/18 10:45:49;;;;;;;13.05;5.88;;;;;;;;;;4992071;28;20050;-78
2023/12/18 10:48:17;;;;;;;9.48;5.50;;;;;;;;;;4991990;28;20084;-77
2023/12/18 10:50:44;;;;;;;10.95;5.95;;;;;;;;;;4974384;28;20037;-78
2023/12/18 10:53:11;;;;;;;14.80;6.30;;;;;;;;;;4992251;28;20037;-77
2023/12/18 10:55:38;;;;;;;11.85;5.82;;;;;;;;;;4992073;28;20032;-77
2023/12/18 10:58:04;;;;;;;11.35;5.95;;;;;;;;;;4994159;28;20121;-77
2023/12/18 11:00:31;;;;;;;13.70;5.85;;;;;;;;;;4993853;28;20057;-77
2023/12/18 11:02:58;;;;;;;10.55;5.10;;;;;;;;;;4976694;28;20034;-77
2023/12/18 11:05:24;;;;;;;16.45;5.72;;;;;;;;;;4993326;28;20027;-76
2023/12/18 11:07:49;;;;;;;12.35;5.97;;;;;;;;;;4993604;28;20510;-77
2023/12/18 11:10:15;;;;;;;11.38;4.65;;;;;;;;;;4995202;28;20057;-76
2023/12/18 11:12:41;;;;;;;8.23;4.50;;;;;;;;;;4995124;28;20473;-77
2023/12/18 11:15:14;;;;;;;9.02;4.68;;;;;;;;;;4996688;28;20022;-77
2023/12/18 11:17:56;;;;;;;7.93;4.40;;;;;;;;;;4998170;28;20038;-77
2023/12/18 11:20:36;;;;;;;8.30;4.40;;;;;;;;;;4997531;28;20034;-76
2023/12/18 11:23:02;;;;;;;8.20;4.97;;;;;;;;;;4998278;28;20069;-77
2023/12/18 11:25:39;;;;;;;11.70;4.60;;;;;;;;;;4997950;28;20026;-78
2023/12/18 11:28:06;;;;;;;10.05;4.63;;;;;;;;;;4998802;28;20030;-79
2023/12/18 11:30:33;;;;;;;10.75;4.30;;;;;;;;;;4997823;28;20018;-77
2023/12/18 11:33:06;;;;;;;10.23;4.63;;;;;;;;;;4997705;28;20397;-79
2023/12/18 11:35:36;;;;;;;11.23;4.72;;;;;;;;;;4998552;28;20029;-78
2023/12/18 11:38:06;;;;;;;9.88;4.93;;;;;;;;;;5000115;28;20093;-78
2023/12/18 11:40:32;;;;;;;10.45;4.80;;;;;;;;;;4982098;28;20028;-77
2023/12/18 11:43:01;;;;;;;6.67;4.07;;;;;;;;;;4999147;28;20109;-78
2023/12/18 11:45:27;;;;;;;8.95;4.30;;;;;;;;;;4999336;28;20256;-78
2023/12/18 11:47:53;;;;;;;5.28;3.60;;;;;;;;;;4998911;28;20081;-77
2023/12/18 11:50:25;;;;;;;6.93;3.70;;;;;;;;;;4999229;28;20389;-77
2023/12/18 11:52:54;;;;;;;10.82;4.15;;;;;;;;;;4981955;28;20030;-78
2023/12/18 11:55:50;;;;;;;13.85;4.10;;;;;;;;;;4982206;28;20061;-78
2023/12/18 11:58:17;;;;;;;7.25;3.22;;;;;;;;;;4999664;28;20058;-77
2023/12/18 12:00:42;;;;;;;6.97;3.25;;;;;;;;;;4999055;28;20045;-77
2023/12/18 12:03:10;;;;;;;7.45;3.40;;;;;;;;;;4981315;28;20478;-79
2023/12/18 12:05:36;;;;;;;7.90;3.05;;;;;;;;;;4998405;28;20026;-77
2023/12/18 12:08:02;;;;;;;7.30;3.10;;;;;;;;;;4998547;28;20030;-77
2023/12/18 12:10:27;;;;;;;5.90;3.20;;;;;;;;;;4998447;28;20038;-78
2023/12/18 12:12:57;;;;;;;12.75;2.95;;;;;;;;;;4998659;28;20102;-77
2023/12/18 12:15:24;;;;;;;7.00;3.30;;;;;;;;;;4998403;28;20032;-77
2023/12/18 12:18:05;;;;;;;6.35;3.00;;;;;;;;;;4998868;28;20504;-79
2023/12/18 12:20:31;;;;;;;5.30;2.90;;;;;;;;;;4982335;28;20026;-78
2023/12/18 12:22:57;;;;;;;5.10;2.67;;;;;;;;;;4999062;28;20080;-78
2023/12/18 12:25:22;;;;;;;6.35;2.50;;;;;;;;;;4981417;28;20018;-78
2023/12/18 12:27:48;;;;;;;5.57;3.05;;;;;;;;;;4998126;28;20026;-77
2023/12/18 12:30:13;;;;;;;5.33;2.93;;;;;;;;;;4980699;28;20076;-78
2023/12/18 12:32:39;;;;;;;4.40;2.55;;;;;;;;;;4981384;28;20338;-77
2023/12/18 12:35:07;;;;;;;7.90;2.78;;;;;;;;;;4998544;28;20109;-78
2023/12/18 12:37:33;;;;;;;4.40;2.63;;;;;;;;;;4980688;28;20062;-77
2023/12/18 12:40:05;;;;;;;5.55;2.70;;;;;;;;;;4998195;28;20105;-77
2023/12/18 12:42:32;;;;;;;4.50;2.35;;;;;;;;;;4980858;28;20026;-77
2023/12/18 12:44:58;;;;;;;5.20;2.42;;;;;;;;;;4997310;28;20026;-77
2023/12/18 12:47:24;;;;;;;6.32;2.50;;;;;;;;;;4997846;28;20041;-77
2023/12/18 12:49:50;;;;;;;6.13;2.40;;;;;;;;;;4998088;28;20104;-77
2023/12/18 12:52:16;;;;;;;3.67;2.20;;;;;;;;;;4997807;28;20408;-78
2023/12/18 12:54:45;;;;;;;5.68;2.42;;;;;;;;;;4997420;28;20121;-77
2023/12/18 12:57:14;;;;;;;3.55;2.08;;;;;;;;;;4997512;28;20038;-78
2023/12/18 12:59:52;;;;;;;6.50;2.60;;;;;;;;;;4980293;28;20122;-77
2023/12/18 13:02:18;;;;;;;5.30;2.75;;;;;;;;;;4996488;28;20030;-78
2023/12/18 13:04:44;;;;;;;15.18;4.07;;;;;;;;;;4997327;28;20540;-78
2023/12/18 13:07:09;;;;;;;10.77;4.40;;;;;;;;;;4981251;28;20113;-78
2023/12/18 13:09:34;;;;;;;17.00;4.15;;;;;;;;;;4997918;28;20025;-77
2023/12/18 13:12:04;;;;;;;7.03;3.80;;;;;;;;;;4997790;28;20478;-77
2023/12/18 13:14:29;;;;;;;6.20;3.28;;;;;;;;;;4979781;28;20282;-78
2023/12/18 13:16:54;;;;;;;5.45;3.08;;;;;;;;;;4997329;28;20490;-78
2023/12/18 13:19:20;;;;;;;6.97;3.25;;;;;;;;;;4979799;28;20057;-78
2023/12/18 13:21:46;;;;;;;11.10;3.75;;;;;;;;;;4979570;28;20525;-77
2023/12/18 13:24:11;;;;;;;7.45;3.80;;;;;;;;;;4979911;28;20073;-78
2023/12/18 13:26:37;;;;;;;11.17;4.60;;;;;;;;;;4997316;28;20445;-77
2023/12/18 13:29:02;;;;;;;9.98;4.72;;;;;;;;;;4997163;28;20617;-77
2023/12/18 13:31:27;;;;;;;9.50;4.65;;;;;;;;;;4997684;28;20516;-78
2023/12/18 13:33:52;;;;;;;6.60;4.40;;;;;;;;;;4979764;28;20027;-77
2023/12/18 13:36:18;;;;;;;7.93;4.00;;;;;;;;;;4977662;28;20028;-79
2023/12/18 13:38:43;;;;;;;7.72;4.03;;;;;;;;;;4979472;28;20261;-78
2023/12/18 13:41:08;;;;;;;7.30;4.10;;;;;;;;;;4997153;28;20027;-80
2023/12/18 13:43:33;;;;;;;9.48;4.47;;;;;;;;;;4998226;28;20031;-78
2023/12/18 13:45:59;;;;;;;13.45;4.90;;;;;;;;;;4997607;28;20023;-77
2023/12/18 13:48:24;;;;;;;7.15;3.92;;;;;;;;;;4979770;28;20085;-78
2023/12/18 13:50:49;;;;;;;15.27;4.72;;;;;;;;;;4980704;28;20034;-78
2023/12/18 13:53:16;;;;;;;15.83;4.63;;;;;;;;;;4997762;28;20116;-79
2023/12/18 13:55:42;;;;;;;17.33;4.95;;;;;;;;;;4996824;28;20718;-78
2023/12/18 13:58:08;;;;;;;9.57;4.45;;;;;;;;;;4997100;28;20050;-78
2023/12/18 14:00:33;;;;;;;21.20;5.53;;;;;;;;;;4997519;28;20025;-79
2023/12/18 14:03:00;;;;;;;18.20;6.03;;;;;;;;;;5006874;28;20061;-79
2023/12/18 14:05:25;;;;;;;34.15;13.30;;;;;;;;;;5005569;28;20260;-77
2023/12/18 14:07:51;;;;;;;37.50;14.17;;;;;;;;;;4989124;28;20120;-78
2023/12/18 14:10:16;;;;;;;17.80;7.78;;;;;;;;;;4981157;28;20346;-78
2023/12/18 14:12:41;;;;;;;18.70;6.18;;;;;;;;;;4995517;28;20405;-79
2023/12/18 14:15:07;;;;;;;15.30;6.03;;;;;;;;;;4995644;28;20036;-79
2023/12/18 14:17:32;;;;;;;15.38;4.88;;;;;;;;;;4979289;28;20279;-80
2023/12/18 14:20:03;;;;;;;8.32;5.03;;;;;;;;;;4997143;28;20093;-79
2023/12/18 14:22:28;;;;;;;15.98;5.35;;;;;;;;;;4997906;28;20097;-77
2023/12/18 14:24:54;;;;;;;14.32;5.55;;;;;;;;;;4996570;28;20470;-78
2023/12/18 14:27:19;;;;;;;15.03;5.37;;;;;;;;;;4997698;28;20026;-79
2023/12/18 14:29:44;;;;;;;16.43;6.10;;;;;;;;;;4997287;28;20302;-77
2023/12/18 14:32:10;;;;;;;11.03;4.87;;;;;;;;;;4996192;28;20260;-78
2023/12/18 14:34:36;;;;;;;12.30;4.82;;;;;;;;;;4979717;28;20306;-78
2023/12/18 14:37:07;;;;;;;14.23;5.30;;;;;;;;;;4997302;28;20124;-79
2023/12/18 14:39:33;;;;;;;17.83;5.13;;;;;;;;;;4997707;28;20256;-78